createdAt,value
2018-03-22T00:00:35.040Z,5.40
2018-03-22T00:03:03.347Z,5.33
2018-03-22T00:05:32.352Z,5.13
2018-03-22T00:08:00.613Z,5.10
2018-03-22T00:10:29.629Z,5.43
2018-03-22T00:12:57.884Z,5.40
2018-03-22T00:15:26.902Z,5.23
2018-03-22T00:17:55.185Z,4.80
2018-03-22T00:20:23.432Z,5.20
2018-03-22T00:22:52.454Z,4.43
2018-03-22T00:25:20.702Z,4.93
2018-03-22T00:27:49.718Z,4.00
2018-03-22T00:30:18.047Z,4.43
2018-03-22T00:32:46.328Z,4.43
2018-03-22T00:35:14.564Z,4.80
2018-03-22T00:37:42.808Z,4.13
2018-03-22T00:40:11.828Z,4.80
2018-03-22T00:42:40.067Z,4.67
2018-03-22T00:45:08.331Z,4.87
2018-03-22T00:47:36.643Z,4.33
2018-03-22T00:50:04.873Z,4.40
2018-03-22T00:52:33.145Z,4.63
2018-03-22T00:55:01.401Z,5.37
2018-03-22T00:57:29.677Z,5.03
2018-03-22T00:59:57.938Z,4.90
2018-03-22T01:02:26.187Z,4.57
2018-03-22T01:04:55.259Z,4.90
2018-03-22T01:07:24.264Z,4.53
2018-03-22T01:09:52.531Z,4.97
2018-03-22T01:12:20.807Z,5.00
2018-03-22T01:14:49.443Z,4.20
2018-03-22T01:17:17.731Z,4.63
2018-03-22T01:19:45.971Z,4.77
2018-03-22T01:22:14.225Z,4.43
2018-03-22T01:24:42.459Z,5.20
2018-03-22T01:27:10.735Z,5.57
2018-03-22T01:29:39.018Z,5.40
2018-03-22T01:32:07.275Z,5.30
2018-03-22T01:34:35.537Z,4.20
2018-03-22T01:37:03.811Z,4.60
2018-03-22T01:39:32.056Z,4.60
2018-03-22T01:42:01.073Z,4.80
2018-03-22T01:44:29.332Z,4.20
2018-03-22T01:46:57.588Z,3.90
2018-03-22T01:49:25.876Z,3.77
2018-03-22T01:51:54.125Z,4.07
2018-03-22T01:54:22.378Z,3.87
2018-03-22T01:56:50.617Z,4.00
2018-03-22T01:59:18.911Z,4.30
2018-03-22T02:01:47.216Z,4.27
2018-03-22T02:04:15.472Z,3.77
2018-03-22T02:06:43.720Z,4.53
2018-03-22T02:09:12.753Z,4.33
2018-03-22T02:11:40.986Z,4.20
2018-03-22T02:14:09.996Z,4.30
2018-03-22T02:16:38.245Z,4.40
2018-03-22T02:19:07.272Z,3.73
2018-03-22T02:21:35.555Z,4.30
2018-03-22T02:24:03.812Z,3.67
2018-03-22T02:26:32.099Z,5.20
2018-03-22T02:29:00.365Z,6.17
2018-03-22T02:31:28.633Z,5.93
2018-03-22T02:33:56.881Z,6.20
2018-03-22T02:36:25.163Z,6.67
2018-03-22T02:38:54.234Z,6.70
2018-03-22T02:41:22.488Z,6.63
2018-03-22T02:43:50.797Z,6.63
2018-03-22T02:46:19.035Z,6.67
2018-03-22T02:48:47.298Z,7.20
2018-03-22T02:51:15.576Z,6.67
2018-03-22T02:53:43.826Z,7.00
2018-03-22T02:56:12.855Z,7.77
2018-03-22T02:58:41.115Z,6.73
2018-03-22T03:01:09.573Z,7.10
2018-03-22T03:03:38.598Z,6.70
2018-03-22T03:06:06.891Z,7.43
2018-03-22T03:08:35.104Z,8.73
2018-03-22T03:11:04.135Z,7.50
2018-03-22T03:13:33.323Z,6.97
2018-03-22T03:16:01.583Z,7.13
2018-03-22T03:18:30.660Z,7.17
2018-03-22T03:20:58.943Z,6.70
2018-03-22T03:23:27.184Z,7.50
2018-03-22T03:25:55.464Z,6.67
2018-03-22T03:28:23.719Z,6.50
2018-03-22T03:30:51.964Z,6.87
2018-03-22T03:33:20.203Z,7.40
2018-03-22T03:35:48.475Z,6.87
2018-03-22T03:38:16.732Z,6.70
2018-03-22T03:40:44.985Z,7.43
2018-03-22T03:43:13.232Z,7.17
2018-03-22T03:45:41.481Z,7.13
2018-03-22T03:48:09.737Z,7.37
2018-03-22T03:50:37.996Z,6.57
2018-03-22T03:53:06.235Z,7.10
2018-03-22T03:55:35.296Z,12.37
2018-03-22T03:58:03.547Z,8.00
2018-03-22T04:00:31.818Z,7.87
2018-03-22T04:03:00.064Z,7.03
2018-03-22T04:05:28.355Z,7.07
2018-03-22T04:07:56.643Z,6.80
2018-03-22T04:10:24.948Z,7.10
2018-03-22T04:12:53.984Z,6.53
2018-03-22T04:15:24.194Z,6.50
2018-03-22T04:17:53.232Z,6.27
2018-03-22T04:20:21.490Z,6.53
2018-03-22T04:22:49.756Z,6.13
2018-03-22T04:25:18.775Z,5.27
2018-03-22T04:27:47.036Z,5.90
2018-03-22T04:30:15.299Z,5.77
2018-03-22T04:32:44.356Z,6.40
2018-03-22T04:35:12.611Z,6.53
2018-03-22T04:37:40.900Z,5.70
2018-03-22T04:40:09.166Z,6.47
2018-03-22T04:42:37.480Z,6.30
2018-03-22T04:45:06.495Z,5.87
2018-03-22T04:47:34.741Z,6.10
2018-03-22T04:50:03.017Z,6.07
2018-03-22T04:52:31.267Z,6.17
2018-03-22T04:54:59.622Z,6.40
2018-03-22T04:57:27.902Z,6.70
2018-03-22T04:59:56.176Z,6.70
2018-03-22T05:02:24.446Z,6.33
2018-03-22T05:04:52.721Z,6.00
2018-03-22T05:07:20.959Z,6.17
2018-03-22T05:09:50.025Z,6.73
2018-03-22T05:12:18.269Z,6.10
2018-03-22T05:14:46.553Z,6.30
2018-03-22T05:17:14.787Z,5.97
2018-03-22T05:19:43.797Z,5.83
2018-03-22T05:22:12.811Z,6.20
2018-03-22T05:24:41.072Z,6.90
2018-03-22T05:27:10.078Z,6.63
2018-03-22T05:29:38.329Z,6.13
2018-03-22T05:32:07.379Z,6.57
2018-03-22T05:34:35.635Z,6.00
2018-03-22T05:37:03.900Z,6.30
2018-03-22T05:39:32.260Z,5.67
2018-03-22T05:42:00.538Z,6.17
2018-03-22T05:44:28.828Z,6.33
2018-03-22T05:46:57.076Z,5.70
2018-03-22T05:49:26.131Z,5.73
2018-03-22T05:51:54.396Z,6.70
2018-03-22T05:54:22.659Z,6.50
2018-03-22T05:56:50.962Z,6.97
2018-03-22T05:59:19.218Z,7.40
2018-03-22T06:01:47.465Z,6.80
2018-03-22T06:04:15.757Z,7.10
2018-03-22T06:06:44.031Z,6.53
2018-03-22T06:09:12.317Z,6.60
2018-03-22T06:11:40.858Z,6.20
2018-03-22T06:14:09.120Z,6.40
2018-03-22T06:16:37.394Z,6.97
2018-03-22T06:19:05.644Z,6.33
2018-03-22T06:21:33.915Z,6.47
2018-03-22T06:24:02.182Z,7.07
2018-03-22T06:26:30.476Z,7.20
2018-03-22T06:28:58.721Z,7.80
2018-03-22T06:31:26.972Z,12.57
2018-03-22T06:33:56.010Z,7.87
2018-03-22T06:36:24.315Z,6.97
2018-03-22T06:38:52.618Z,7.00
2018-03-22T06:41:21.625Z,6.63
2018-03-22T06:43:49.928Z,6.73
2018-03-22T06:46:18.204Z,6.57
2018-03-22T06:48:46.610Z,5.83
2018-03-22T06:51:14.840Z,5.13
2018-03-22T06:53:43.127Z,4.90
2018-03-22T06:56:11.354Z,5.10
2018-03-22T06:58:40.392Z,6.67
2018-03-22T07:01:08.678Z,4.83
2018-03-22T07:03:36.952Z,4.20
2018-03-22T07:06:05.204Z,4.90
2018-03-22T07:08:33.480Z,4.60
2018-03-22T07:11:01.724Z,4.73
2018-03-22T07:13:30.771Z,3.70
2018-03-22T07:15:59.072Z,4.10
2018-03-22T07:18:27.707Z,4.07
2018-03-22T07:20:56.895Z,4.17
2018-03-22T07:23:25.151Z,4.73
2018-03-22T07:25:55.175Z,3.87
2018-03-22T07:28:23.408Z,4.23
2018-03-22T07:30:51.682Z,6.07
2018-03-22T07:33:19.986Z,4.53
2018-03-22T07:35:48.303Z,5.00
2018-03-22T07:38:16.544Z,5.73
2018-03-22T07:40:44.792Z,4.57
2018-03-22T07:43:18.645Z,3.77
2018-03-22T07:45:46.903Z,3.87
2018-03-22T07:48:15.151Z,4.00
2018-03-22T07:50:44.387Z,4.03
2018-03-22T07:53:12.636Z,3.90
2018-03-22T07:55:40.928Z,3.80
2018-03-22T07:58:09.160Z,3.77
2018-03-22T08:00:38.186Z,3.63
2018-03-22T08:03:07.253Z,3.83
2018-03-22T08:05:35.519Z,4.53
2018-03-22T08:08:09.136Z,3.87
2018-03-22T08:10:37.368Z,4.07
2018-03-22T08:13:06.402Z,4.27
2018-03-22T08:15:34.655Z,3.83
2018-03-22T08:18:03.548Z,4.40
2018-03-22T08:20:31.815Z,4.63
2018-03-22T08:23:00.846Z,11.30
2018-03-22T08:25:30.021Z,4.60
2018-03-22T08:27:58.261Z,4.67
2018-03-22T08:30:27.289Z,4.77
2018-03-22T08:32:55.576Z,3.90
2018-03-22T08:35:23.851Z,4.60
2018-03-22T08:37:52.111Z,3.90
2018-03-22T08:40:20.369Z,3.77
2018-03-22T08:42:48.625Z,4.07
2018-03-22T08:45:16.900Z,3.90
2018-03-22T08:47:45.140Z,4.20
2018-03-22T08:50:13.451Z,5.33
2018-03-22T08:52:41.711Z,3.50
2018-03-22T08:55:09.964Z,4.00
2018-03-22T08:57:38.991Z,4.50
2018-03-22T09:00:07.237Z,4.00
2018-03-22T09:02:35.480Z,4.37
2018-03-22T09:05:04.503Z,3.80
2018-03-22T09:07:32.773Z,4.10
2018-03-22T09:10:01.055Z,5.10
2018-03-22T09:12:29.344Z,5.90
2018-03-22T09:14:57.587Z,5.47
2018-03-22T09:17:25.856Z,4.87
2018-03-22T09:19:54.135Z,5.67
2018-03-22T09:22:22.454Z,5.50
2018-03-22T09:24:50.658Z,5.23
2018-03-22T09:27:18.959Z,5.27
2018-03-22T09:29:47.215Z,6.27
2018-03-22T09:32:15.623Z,5.37
2018-03-22T09:34:43.972Z,3.73
2018-03-22T09:37:12.283Z,4.10
2018-03-22T09:39:40.513Z,3.47
2018-03-22T09:42:08.829Z,3.67
2018-03-22T09:44:37.104Z,4.10
2018-03-22T09:47:05.379Z,4.53
2018-03-22T09:49:34.880Z,3.87
2018-03-22T09:52:03.152Z,3.70
2018-03-22T09:54:32.172Z,4.00
2018-03-22T09:57:01.327Z,5.07
2018-03-22T09:59:29.627Z,5.87
2018-03-22T10:01:58.648Z,11.73
2018-03-22T10:04:27.933Z,6.23
2018-03-22T10:06:56.196Z,5.67
2018-03-22T10:09:24.477Z,6.17
2018-03-22T10:11:52.780Z,6.43
2018-03-22T10:14:21.048Z,5.80
2018-03-22T10:16:49.325Z,5.57
2018-03-22T10:19:17.607Z,5.50
2018-03-22T10:21:45.953Z,5.63
2018-03-22T10:24:15.004Z,5.00
2018-03-22T10:26:43.295Z,5.73
2018-03-22T10:29:11.570Z,6.03
2018-03-22T10:31:39.840Z,5.67
2018-03-22T10:34:08.106Z,6.20
2018-03-22T10:36:36.605Z,6.50
2018-03-22T10:39:04.863Z,7.17
2018-03-22T10:41:33.118Z,7.00
2018-03-22T10:44:01.392Z,7.20
2018-03-22T10:46:29.658Z,7.37
2018-03-22T10:48:57.909Z,7.57
2018-03-22T10:51:26.186Z,8.70
2018-03-22T10:53:54.738Z,8.03
2018-03-22T10:56:22.994Z,7.90
2018-03-22T10:58:51.265Z,10.37
2018-03-22T11:01:25.120Z,9.93
2018-03-22T11:03:53.424Z,10.93
2018-03-22T11:06:21.678Z,9.63
2018-03-22T11:08:50.750Z,11.07
2018-03-22T11:11:19.788Z,10.57
2018-03-22T11:13:48.070Z,9.63
2018-03-22T11:16:16.301Z,10.40
2018-03-22T11:18:45.668Z,9.33
2018-03-22T11:21:13.960Z,11.17
2018-03-22T11:23:42.232Z,14.47
2018-03-22T11:26:10.616Z,11.13
2018-03-22T11:28:38.865Z,11.07
2018-03-22T11:31:07.200Z,20.07
2018-03-22T11:33:36.237Z,11.20
2018-03-22T11:36:04.496Z,11.73
2018-03-22T11:38:33.716Z,12.20
2018-03-22T11:41:02.741Z,12.17
2018-03-22T11:43:36.753Z,11.33
2018-03-22T11:46:05.076Z,11.17
2018-03-22T11:48:33.324Z,11.60
2018-03-22T11:51:02.384Z,11.43
2018-03-22T11:53:30.648Z,8.73
2018-03-22T11:55:58.911Z,4.97
2018-03-22T11:58:27.176Z,5.30
2018-03-22T12:00:55.439Z,7.33
2018-03-22T12:03:23.784Z,9.17
2018-03-22T12:05:52.093Z,10.80
2018-03-22T12:08:20.436Z,11.90
2018-03-22T12:10:49.459Z,11.57
2018-03-22T12:13:17.747Z,14.47
2018-03-22T12:15:46.000Z,18.47
2018-03-22T12:18:14.265Z,13.87
2018-03-22T12:20:42.537Z,16.70
2018-03-22T12:23:10.788Z,14.00
2018-03-22T12:25:39.068Z,13.87
2018-03-22T12:28:07.443Z,13.47
2018-03-22T12:30:35.741Z,14.00
2018-03-22T12:33:03.992Z,15.17
2018-03-22T12:35:32.282Z,13.33
2018-03-22T12:38:00.562Z,13.83
2018-03-22T12:40:28.852Z,14.97
2018-03-22T12:42:57.145Z,20.33
2018-03-22T12:45:26.156Z,19.30
2018-03-22T12:47:54.447Z,17.07
2018-03-22T12:50:22.680Z,14.70
2018-03-22T12:52:50.988Z,14.50
2018-03-22T12:55:19.285Z,15.47
2018-03-22T12:57:47.556Z,15.00
2018-03-22T13:00:15.808Z,16.27
2018-03-22T13:02:44.092Z,15.43
2018-03-22T13:05:12.360Z,15.33
2018-03-22T13:07:40.616Z,15.47
2018-03-22T13:10:09.652Z,15.80
2018-03-22T13:12:37.950Z,16.60
2018-03-22T13:15:06.204Z,16.67
2018-03-22T13:17:34.450Z,16.37
2018-03-22T13:20:02.729Z,15.33
2018-03-22T13:22:31.045Z,16.57
2018-03-22T13:25:01.038Z,17.20
2018-03-22T13:27:31.097Z,18.10
2018-03-22T13:29:59.395Z,16.80
2018-03-22T13:32:27.796Z,17.47
2018-03-22T13:34:57.796Z,21.23
2018-03-22T13:37:26.225Z,18.37
2018-03-22T13:39:54.504Z,17.37
2018-03-22T13:42:22.763Z,18.80
2018-03-22T13:44:51.073Z,20.20
2018-03-22T13:47:20.196Z,19.97
2018-03-22T13:49:50.113Z,22.53
2018-03-22T13:52:19.170Z,23.77
2018-03-22T13:54:47.466Z,22.07
2018-03-22T13:57:15.743Z,22.73
2018-03-22T13:59:44.273Z,18.77
2018-03-22T14:02:12.588Z,19.13
2018-03-22T14:04:40.832Z,21.47
2018-03-22T14:07:09.104Z,22.97
2018-03-22T14:09:37.370Z,19.33
2018-03-22T14:12:05.622Z,18.03
2018-03-22T14:14:34.659Z,17.63
2018-03-22T14:17:02.965Z,16.90
2018-03-22T14:19:31.260Z,17.17
2018-03-22T14:21:59.599Z,16.57
2018-03-22T14:24:27.868Z,17.03
2018-03-22T14:26:56.116Z,16.57
2018-03-22T14:29:25.100Z,15.97
2018-03-22T14:31:54.128Z,15.50
2018-03-22T14:34:22.403Z,16.03
2018-03-22T14:36:50.670Z,15.40
2018-03-22T14:39:18.993Z,14.63
2018-03-22T14:41:47.309Z,14.33
2018-03-22T14:44:15.578Z,15.30
2018-03-22T14:46:43.864Z,14.27
2018-03-22T14:49:12.143Z,16.03
2018-03-22T14:51:40.441Z,16.27
2018-03-22T14:54:08.712Z,15.17
2018-03-22T14:56:37.358Z,16.27
2018-03-22T14:59:06.403Z,16.83
2018-03-22T15:01:34.762Z,16.30
2018-03-22T15:04:03.013Z,16.23
2018-03-22T15:06:32.041Z,15.03
2018-03-22T15:09:00.320Z,14.40
2018-03-22T15:11:28.591Z,14.77
2018-03-22T15:13:56.868Z,14.47
2018-03-22T15:16:25.137Z,15.07
2018-03-22T15:18:53.762Z,15.20
2018-03-22T15:21:22.032Z,14.43
2018-03-22T15:23:50.280Z,15.07
2018-03-22T15:26:18.528Z,14.33
2018-03-22T15:28:46.809Z,14.50
2018-03-22T15:33:55.830Z,13.97
2018-03-22T15:36:24.088Z,12.43
2018-03-22T15:38:52.341Z,12.83
2018-03-22T15:41:20.638Z,13.07
2018-03-22T15:43:48.900Z,12.67
2018-03-22T15:46:17.167Z,12.67
2018-03-22T15:48:45.414Z,13.50
2018-03-22T15:51:13.691Z,12.53
2018-03-22T15:53:41.959Z,12.03
2018-03-22T15:56:11.010Z,12.30
2018-03-22T15:58:39.286Z,12.80
2018-03-22T16:01:07.585Z,12.83
2018-03-22T16:03:35.855Z,12.83
2018-03-22T16:06:04.890Z,12.70
2018-03-22T16:08:33.160Z,12.53
2018-03-22T16:11:01.469Z,12.97
2018-03-22T16:13:41.784Z,13.40
2018-03-22T16:16:10.813Z,13.03
2018-03-22T16:18:39.096Z,12.97
2018-03-22T16:21:07.398Z,12.97
2018-03-22T16:23:35.673Z,13.30
2018-03-22T16:26:03.954Z,14.17
2018-03-22T16:28:32.227Z,13.73
2018-03-22T16:31:00.478Z,14.27
2018-03-22T16:33:28.752Z,13.60
2018-03-22T16:35:57.869Z,14.37
2018-03-22T16:38:26.132Z,15.70
2018-03-22T16:40:54.410Z,15.50
2018-03-22T16:43:22.714Z,14.53
2018-03-22T16:45:50.973Z,14.87
2018-03-22T16:48:19.287Z,15.00
2018-03-22T16:50:47.578Z,14.63
2018-03-22T16:53:15.869Z,15.40
2018-03-22T16:55:44.133Z,15.83
2018-03-22T16:58:12.452Z,14.90
2018-03-22T17:00:40.719Z,14.30
2018-03-22T17:03:09.023Z,15.80
2018-03-22T17:05:37.288Z,15.33
2018-03-22T17:08:05.566Z,15.20
2018-03-22T17:10:33.884Z,15.67
2018-03-22T17:13:02.206Z,15.97
2018-03-22T17:15:30.481Z,15.80
2018-03-22T17:17:58.868Z,16.20
2018-03-22T17:20:27.139Z,15.63
2018-03-22T17:22:55.474Z,16.13
2018-03-22T17:25:23.777Z,16.40
2018-03-22T17:27:52.033Z,16.90
2018-03-22T17:30:20.324Z,16.97
2018-03-22T17:35:24.278Z,17.10
2018-03-22T17:37:52.542Z,17.47
2018-03-22T17:40:25.328Z,17.00
2018-03-22T17:42:53.608Z,17.30
2018-03-22T17:45:21.884Z,18.10
2018-03-22T17:47:50.144Z,18.33
2018-03-22T17:50:18.428Z,18.33
2018-03-22T17:52:52.751Z,17.67
2018-03-22T17:55:20.991Z,18.37
2018-03-22T17:57:50.622Z,19.97
2018-03-22T18:00:19.244Z,18.60
2018-03-22T18:02:47.521Z,19.97
2018-03-22T18:05:15.772Z,19.50
2018-03-22T18:07:44.056Z,19.30
2018-03-22T18:10:12.330Z,18.77
2018-03-22T18:12:41.377Z,20.57
2018-03-22T18:15:09.665Z,19.77
2018-03-22T18:17:37.934Z,18.43
2018-03-22T18:20:06.215Z,19.27
2018-03-22T18:22:34.520Z,18.57
2018-03-22T18:25:02.794Z,19.00
2018-03-22T18:27:31.084Z,19.43
2018-03-22T18:29:59.349Z,20.23
2018-03-22T18:32:27.596Z,18.97
2018-03-22T18:34:55.867Z,19.03
2018-03-22T18:37:24.132Z,19.50
2018-03-22T18:39:52.406Z,20.40
2018-03-22T18:42:20.680Z,20.20
2018-03-22T18:44:49.756Z,20.90
2018-03-22T18:47:18.033Z,22.20
2018-03-22T18:49:46.347Z,20.50
2018-03-22T18:52:14.623Z,20.13
2018-03-22T18:54:43.062Z,20.23
2018-03-22T18:57:11.430Z,21.17
2018-03-22T18:59:39.689Z,21.70
2018-03-22T19:02:07.958Z,20.90
2018-03-22T19:04:36.274Z,20.90
2018-03-22T19:07:04.605Z,21.00
2018-03-22T19:09:32.860Z,21.70
2018-03-22T19:12:01.156Z,22.40
2018-03-22T19:14:29.435Z,22.87
2018-03-22T19:16:57.710Z,22.37
2018-03-22T19:19:25.975Z,22.23
2018-03-22T19:21:54.220Z,21.80
2018-03-22T19:24:23.295Z,20.93
2018-03-22T19:26:51.568Z,22.07
2018-03-22T19:29:19.844Z,21.13
2018-03-22T19:31:48.100Z,22.60
2018-03-22T19:34:16.376Z,21.17
2018-03-22T19:36:44.649Z,23.83
2018-03-22T19:39:12.929Z,21.83
2018-03-22T19:41:41.225Z,20.27
2018-03-22T19:44:09.501Z,20.60
2018-03-22T19:46:37.782Z,21.17
2018-03-22T19:49:06.038Z,22.83
2018-03-22T19:51:34.341Z,21.70
2018-03-22T19:54:02.618Z,20.77
2018-03-22T19:56:30.870Z,20.70
2018-03-22T19:58:59.124Z,20.77
2018-03-22T20:01:27.404Z,19.57
2018-03-22T20:03:55.805Z,21.37
2018-03-22T20:06:24.087Z,21.10
2018-03-22T20:08:52.398Z,21.90
2018-03-22T20:11:20.665Z,20.87
2018-03-22T20:13:49.720Z,21.53
2018-03-22T20:16:17.980Z,21.63
2018-03-22T20:18:46.251Z,20.97
2018-03-22T20:21:14.558Z,19.57
2018-03-22T20:23:42.810Z,19.30
2018-03-22T20:26:11.099Z,18.90
2018-03-22T20:28:39.405Z,18.97
2018-03-22T20:31:07.697Z,19.90
2018-03-22T20:33:35.993Z,19.23
2018-03-22T20:36:04.282Z,18.40
2018-03-22T20:38:32.544Z,16.70
2018-03-22T20:41:00.806Z,17.50
2018-03-22T20:43:29.107Z,17.23
2018-03-22T20:45:58.081Z,16.13
2018-03-22T20:48:26.378Z,16.37
2018-03-22T20:50:54.646Z,16.93
2018-03-22T20:53:22.921Z,16.13
2018-03-22T20:55:51.221Z,17.23
2018-03-22T20:58:19.480Z,16.07
2018-03-22T21:00:47.777Z,15.30
2018-03-22T21:03:16.071Z,13.53
2018-03-22T21:05:44.356Z,14.03
2018-03-22T21:08:12.725Z,15.03
2018-03-22T21:10:41.024Z,15.20
2018-03-22T21:13:10.506Z,15.43
2018-03-22T21:15:38.794Z,15.47
2018-03-22T21:18:17.247Z,15.60
2018-03-22T21:20:45.554Z,16.37
2018-03-22T21:23:13.782Z,17.03
2018-03-22T21:25:42.079Z,15.50
2018-03-22T21:28:10.364Z,15.17
2018-03-22T21:30:39.167Z,15.77
2018-03-22T21:33:08.535Z,14.77
2018-03-22T21:35:37.139Z,15.30
2018-03-22T21:38:05.539Z,15.30
2018-03-22T21:40:34.648Z,14.30
2018-03-22T21:43:03.753Z,14.10
2018-03-22T21:45:32.037Z,14.63
2018-03-22T21:48:00.299Z,14.80
2018-03-22T21:53:28.078Z,14.20
2018-03-22T21:55:56.469Z,15.10
2018-03-22T21:58:24.792Z,14.10
2018-03-22T22:00:53.045Z,14.83
2018-03-22T22:03:21.332Z,13.63
2018-03-22T22:05:49.610Z,14.37
2018-03-22T22:08:17.860Z,14.70
2018-03-22T22:10:46.121Z,15.67
2018-03-22T22:13:14.384Z,15.90
2018-03-22T22:15:42.661Z,14.60
2018-03-22T22:18:10.912Z,14.87
2018-03-22T22:20:39.210Z,14.27
2018-03-22T22:23:07.460Z,14.20
2018-03-22T22:25:35.725Z,14.73
2018-03-22T22:28:04.717Z,14.03
2018-03-22T22:30:33.704Z,14.67
2018-03-22T22:33:01.965Z,14.27
2018-03-22T22:35:30.595Z,15.57
2018-03-22T22:37:58.868Z,15.40
2018-03-22T22:40:28.090Z,14.87
2018-03-22T22:42:56.343Z,14.77
2018-03-22T22:45:24.638Z,13.40
2018-03-22T22:47:52.925Z,12.77
2018-03-22T22:50:21.188Z,14.20
2018-03-22T22:52:49.879Z,14.27
2018-03-22T22:55:18.142Z,14.57
2018-03-22T22:57:46.424Z,14.33
2018-03-22T23:00:14.692Z,13.53
2018-03-22T23:02:43.808Z,14.03
2018-03-22T23:05:12.084Z,13.50
2018-03-22T23:07:40.359Z,14.43
2018-03-22T23:10:08.632Z,13.73
2018-03-22T23:12:37.709Z,13.83
2018-03-22T23:15:07.308Z,13.67
2018-03-22T23:17:35.552Z,13.97
2018-03-22T23:20:04.857Z,14.00
2018-03-22T23:22:33.161Z,14.43
2018-03-22T23:25:01.458Z,15.37
2018-03-22T23:27:29.736Z,14.30
2018-03-22T23:29:57.984Z,14.40
2018-03-22T23:32:26.249Z,13.87
2018-03-22T23:34:54.500Z,13.60
2018-03-22T23:37:23.532Z,14.10
2018-03-22T23:39:51.795Z,14.40
2018-03-22T23:42:20.067Z,15.20
2018-03-22T23:44:48.319Z,14.63
2018-03-22T23:47:16.601Z,13.40
2018-03-22T23:49:44.855Z,14.43
2018-03-22T23:52:13.142Z,14.93
2018-03-22T23:54:41.390Z,15.13
2018-03-22T23:57:09.659Z,15.13
2018-03-22T23:59:37.935Z,14.07
